createdAt,value
2022-09-12T00:01:51.853Z,14.66
2022-09-12T00:04:21.698Z,14.56
2022-09-12T00:06:51.593Z,14.52
2022-09-12T00:09:23.055Z,14.50
2022-09-12T00:11:52.796Z,14.53
2022-09-12T00:14:22.724Z,14.55
2022-09-12T00:16:52.796Z,14.59
2022-09-12T00:19:22.536Z,14.62
2022-09-12T00:21:52.514Z,14.52
2022-09-12T00:24:24.095Z,14.44
2022-09-12T00:26:53.835Z,14.48
2022-09-12T00:29:25.091Z,14.51
2022-09-12T00:31:54.925Z,14.52
2022-09-12T00:34:24.711Z,14.55
2022-09-12T00:36:54.696Z,14.51
2022-09-12T00:39:26.136Z,14.44
2022-09-12T00:41:56.396Z,14.37
2022-09-12T00:44:54.314Z,14.21
2022-09-12T00:47:29.115Z,14.12
2022-09-12T00:52:13.856Z,14.20
2022-09-12T00:54:49.383Z,14.10
2022-09-12T00:57:21.011Z,14.05
2022-09-12T00:59:59.875Z,14.08
2022-09-12T01:02:30.796Z,14.14
2022-09-12T01:05:00.795Z,14.03
2022-09-12T01:07:33.414Z,14.06
2022-09-12T01:10:07.603Z,14.03
2022-09-12T01:12:41.572Z,13.98
2022-09-12T01:15:12.697Z,13.94
2022-09-12T01:17:57.896Z,13.87
2022-09-12T01:21:12.052Z,13.90
2022-09-12T01:24:55.794Z,13.92
2022-09-12T01:27:48.822Z,13.92
2022-09-12T01:30:42.243Z,13.92
2022-09-12T01:33:49.292Z,13.81
2022-09-12T01:36:41.835Z,13.60
2022-09-12T01:39:28.577Z,13.53
2022-09-12T01:42:12.144Z,13.52
2022-09-12T01:44:52.436Z,13.35
2022-09-12T01:47:32.695Z,13.15
2022-09-12T01:50:08.532Z,13.12
2022-09-12T01:52:46.855Z,13.20
2022-09-12T01:55:22.872Z,13.29
2022-09-12T01:57:59.955Z,13.18
2022-09-12T02:00:30.514Z,12.99
2022-09-12T02:03:10.675Z,12.92
2022-09-12T02:05:44.894Z,12.98
2022-09-12T02:08:20.154Z,13.01
2022-09-12T02:10:55.317Z,13.04
2022-09-12T02:13:31.500Z,13.00
2022-09-12T02:16:08.175Z,13.04
2022-09-12T02:18:44.375Z,12.89
2022-09-12T02:21:15.490Z,12.89
2022-09-12T02:23:52.964Z,12.87
2022-09-12T02:26:30.994Z,12.90
2022-09-12T02:29:00.975Z,12.81
2022-09-12T02:31:35.616Z,12.72
2022-09-12T02:34:21.871Z,12.71
2022-09-12T02:37:03.075Z,12.67
2022-09-12T02:39:33.025Z,12.54
2022-09-12T02:42:05.034Z,12.32
2022-09-12T02:44:37.332Z,12.19
2022-09-12T02:47:11.761Z,12.02
2022-09-12T02:49:43.172Z,11.88
2022-09-12T02:52:13.071Z,11.93
2022-09-12T02:54:43.547Z,11.88
2022-09-12T02:57:22.573Z,11.90
2022-09-12T02:59:56.872Z,11.86
2022-09-12T03:02:39.852Z,11.93
2022-09-12T03:05:33.124Z,11.83
2022-09-12T03:08:41.818Z,11.62
2022-09-12T03:12:04.322Z,11.45
2022-09-12T03:15:12.674Z,11.39
2022-09-12T03:18:10.184Z,11.52
2022-09-12T03:20:55.714Z,11.52
2022-09-12T03:23:35.031Z,11.27
2022-09-12T03:26:12.772Z,11.21
2022-09-12T03:28:45.698Z,11.03
2022-09-12T03:31:17.876Z,11.06
2022-09-12T03:33:48.335Z,11.12
2022-09-12T03:36:24.720Z,11.25
2022-09-12T03:38:54.979Z,11.29
2022-09-12T03:41:25.195Z,11.17
2022-09-12T03:43:58.771Z,11.12
2022-09-12T03:46:28.651Z,11.07
2022-09-12T03:48:58.375Z,10.99
2022-09-12T03:53:12.965Z,10.96
2022-09-12T03:55:45.196Z,10.85
2022-09-12T03:58:15.093Z,10.73
2022-09-12T04:00:44.948Z,10.79
2022-09-12T04:03:15.016Z,10.62
2022-09-12T04:05:44.972Z,10.44
2022-09-12T04:08:16.451Z,10.41
2022-09-12T04:10:47.020Z,10.48
2022-09-12T04:13:16.973Z,10.55
2022-09-12T04:15:59.337Z,10.57
2022-09-12T04:18:29.837Z,10.50
2022-09-12T04:21:00.191Z,10.36
2022-09-12T04:23:31.486Z,10.39
2022-09-12T04:26:03.391Z,10.44
2022-09-12T04:28:33.276Z,10.50
2022-09-12T04:31:07.289Z,10.50
2022-09-12T04:33:38.495Z,10.51
2022-09-12T04:36:11.314Z,10.39
2022-09-12T04:38:42.672Z,10.33
2022-09-12T04:41:16.241Z,10.29
2022-09-12T04:43:47.698Z,10.36
2022-09-12T04:46:20.418Z,10.52
2022-09-12T04:48:56.070Z,10.67
2022-09-12T04:51:29.977Z,10.71
2022-09-12T04:54:03.764Z,10.83
2022-09-12T04:56:34.716Z,10.94
2022-09-12T04:59:04.520Z,11.11
2022-09-12T05:01:34.486Z,11.20
2022-09-12T05:04:04.973Z,11.36
2022-09-12T05:06:38.598Z,11.54
2022-09-12T05:09:14.518Z,11.74
2022-09-12T05:12:03.893Z,11.91
2022-09-12T05:14:35.995Z,12.16
2022-09-12T05:17:07.511Z,12.37
2022-09-12T05:19:38.057Z,12.60
2022-09-12T05:22:08.072Z,12.78
2022-09-12T05:24:39.552Z,12.92
2022-09-12T05:27:09.357Z,13.11
2022-09-12T05:29:39.293Z,13.30
2022-09-12T05:32:10.044Z,13.44
2022-09-12T05:34:40.452Z,13.60
2022-09-12T05:37:10.575Z,13.70
2022-09-12T05:39:41.828Z,13.84
2022-09-12T05:42:12.498Z,14.01
2022-09-12T05:44:42.371Z,14.21
2022-09-12T05:47:14.557Z,14.38
2022-09-12T05:49:45.053Z,14.54
2022-09-12T05:52:15.176Z,14.70
2022-09-12T05:54:47.916Z,14.84
2022-09-12T05:57:17.693Z,14.96
2022-09-12T05:59:47.932Z,15.09
2022-09-12T06:02:17.770Z,15.21
2022-09-12T06:04:47.633Z,15.34
2022-09-12T06:07:17.525Z,15.44
2022-09-12T06:09:48.893Z,15.56
2022-09-12T06:12:18.714Z,15.61
2022-09-12T06:14:48.436Z,15.74
2022-09-12T06:17:19.154Z,15.89
2022-09-12T06:19:50.393Z,16.00
2022-09-12T06:22:20.512Z,16.14
2022-09-12T06:24:54.843Z,16.27
2022-09-12T06:27:27.777Z,16.36
2022-09-12T06:29:57.611Z,16.48
2022-09-12T06:32:27.539Z,16.46
2022-09-12T06:34:58.103Z,16.50
2022-09-12T06:37:28.757Z,16.56
2022-09-12T06:40:01.940Z,16.62
2022-09-12T06:42:31.997Z,16.67
2022-09-12T06:45:01.896Z,16.74
2022-09-12T06:47:31.698Z,16.82
2022-09-12T06:53:10.061Z,17.10
2022-09-12T06:55:40.002Z,17.08
2022-09-12T06:58:09.934Z,17.28
2022-09-12T07:00:40.451Z,17.38
2022-09-12T07:03:10.215Z,17.48
2022-09-12T07:05:40.532Z,17.62
2022-09-12T07:08:11.746Z,17.76
2022-09-12T07:10:41.555Z,17.87
2022-09-12T07:13:11.355Z,17.83
2022-09-12T07:15:41.326Z,17.93
2022-09-12T07:18:14.338Z,18.13
2022-09-12T07:20:44.270Z,18.28
2022-09-12T07:23:15.498Z,18.45
2022-09-12T07:25:45.434Z,18.58
2022-09-12T07:28:15.185Z,18.76
2022-09-12T07:30:45.021Z,18.98
2022-09-12T07:33:15.053Z,19.05
2022-09-12T07:35:44.794Z,19.19
2022-09-12T07:38:16.326Z,19.47
2022-09-12T07:40:46.700Z,19.38
2022-09-12T07:43:16.662Z,19.34
2022-09-12T07:45:46.847Z,19.20
2022-09-12T07:48:16.702Z,19.23
2022-09-12T07:50:46.454Z,19.35
2022-09-12T07:53:17.739Z,19.41
2022-09-12T07:55:54.925Z,19.59
2022-09-12T07:58:25.012Z,19.86
2022-09-12T08:00:55.325Z,19.93
2022-09-12T08:03:25.200Z,19.87
2022-09-12T08:05:55.152Z,19.93
2022-09-12T08:08:26.562Z,19.96
2022-09-12T08:11:00.274Z,20.17
2022-09-12T08:13:30.854Z,20.30
2022-09-12T08:16:01.439Z,20.39
2022-09-12T08:18:33.015Z,20.40
2022-09-12T08:21:04.188Z,20.35
2022-09-12T08:23:36.814Z,20.43
2022-09-12T08:26:08.554Z,20.58
2022-09-12T08:28:40.771Z,20.65
2022-09-12T08:31:14.087Z,20.71
2022-09-12T08:33:44.492Z,20.83
2022-09-12T08:36:16.723Z,20.90
2022-09-12T08:38:49.599Z,20.99
2022-09-12T08:41:28.803Z,20.87
2022-09-12T08:44:23.630Z,20.92
2022-09-12T08:47:27.511Z,20.91
2022-09-12T08:50:08.239Z,20.86
2022-09-12T08:52:45.571Z,20.92
2022-09-12T08:55:33.928Z,20.98
2022-09-12T08:58:12.104Z,20.99
2022-09-12T09:00:52.592Z,21.01
2022-09-12T09:03:48.016Z,21.09
2022-09-12T09:06:36.038Z,21.14
2022-09-12T09:09:15.294Z,21.18
2022-09-12T09:12:02.756Z,21.31
2022-09-12T09:14:55.572Z,21.35
2022-09-12T09:17:29.531Z,21.24
2022-09-12T09:20:07.871Z,21.28
2022-09-12T09:22:44.892Z,21.35
2022-09-12T09:25:23.122Z,21.36
2022-09-12T09:28:02.598Z,21.29
2022-09-12T09:30:33.472Z,21.23
2022-09-12T09:33:07.925Z,21.34
2022-09-12T09:35:46.644Z,21.41
2022-09-12T09:38:27.010Z,21.30
2022-09-12T09:41:36.572Z,21.32
2022-09-12T09:46:42.802Z,21.70
2022-09-12T09:49:16.081Z,21.70
2022-09-12T09:53:17.977Z,21.76
2022-09-12T09:55:48.594Z,21.47
2022-09-12T09:58:32.853Z,21.51
2022-09-12T10:01:04.581Z,21.53
2022-09-12T10:03:39.312Z,21.58
2022-09-12T10:06:33.194Z,21.72
2022-09-12T10:09:24.013Z,21.84
2022-09-12T10:11:57.051Z,21.66
2022-09-12T10:14:39.746Z,21.51
2022-09-12T10:17:31.774Z,21.58
2022-09-12T10:20:22.739Z,21.64
2022-09-12T10:22:52.916Z,21.57
2022-09-12T10:25:27.971Z,21.56
2022-09-12T10:28:01.616Z,21.58
2022-09-12T10:30:31.586Z,21.77
2022-09-12T10:33:10.334Z,21.81
2022-09-12T10:35:49.602Z,21.77
2022-09-12T10:38:26.444Z,21.90
2022-09-12T10:41:05.192Z,22.00
2022-09-12T10:43:39.602Z,21.96
2022-09-12T10:46:31.373Z,21.69
2022-09-12T10:49:38.428Z,21.35
2022-09-12T10:52:25.509Z,21.40
2022-09-12T10:54:55.833Z,21.36
2022-09-12T10:58:12.912Z,21.53
2022-09-12T11:00:49.874Z,21.70
2022-09-12T11:03:32.332Z,21.66
2022-09-12T11:06:04.357Z,21.66
2022-09-12T11:08:57.320Z,21.80
2022-09-12T11:11:48.300Z,21.95
2022-09-12T11:14:42.674Z,21.87
2022-09-12T11:17:27.532Z,21.78
2022-09-12T11:20:34.836Z,21.91
2022-09-12T11:23:45.008Z,22.20
2022-09-12T11:26:34.057Z,22.27
2022-09-12T11:29:18.178Z,22.44
2022-09-12T11:32:34.273Z,22.69
2022-09-12T11:35:18.184Z,22.61
2022-09-12T11:38:30.292Z,22.38
2022-09-12T11:41:05.755Z,22.52
2022-09-12T11:43:42.388Z,22.56
2022-09-12T11:46:24.582Z,22.58
2022-09-12T11:49:01.089Z,22.47
2022-09-12T11:51:35.875Z,22.30
2022-09-12T11:54:16.343Z,22.40
2022-09-12T11:56:50.446Z,22.26
2022-09-12T11:59:41.900Z,22.48
2022-09-12T12:02:19.571Z,22.79
2022-09-12T12:05:07.632Z,22.91
2022-09-12T12:07:45.780Z,22.73
2022-09-12T12:10:34.053Z,22.48
2022-09-12T12:13:13.877Z,22.43
2022-09-12T12:15:50.187Z,22.62
2022-09-12T12:18:24.472Z,22.70
2022-09-12T12:20:57.954Z,22.71
2022-09-12T12:23:32.094Z,22.72
2022-09-12T12:26:04.112Z,22.87
2022-09-12T12:28:59.473Z,22.79
2022-09-12T12:31:29.288Z,22.74
2022-09-12T12:34:33.351Z,22.75
2022-09-12T12:37:50.534Z,22.68
2022-09-12T12:40:28.257Z,22.48
2022-09-12T12:43:08.384Z,22.44
2022-09-12T12:46:08.019Z,22.26
2022-09-12T12:49:11.321Z,21.93
2022-09-12T12:53:19.977Z,21.66
2022-09-12T12:55:53.137Z,21.23
2022-09-12T12:58:43.332Z,21.16
2022-09-12T13:01:16.639Z,21.03
2022-09-12T13:03:49.493Z,20.85
2022-09-12T13:06:36.891Z,20.77
2022-09-12T13:09:11.477Z,20.70
2022-09-12T13:11:43.368Z,20.51
2022-09-12T13:14:58.791Z,20.41
2022-09-12T13:17:35.554Z,20.38
2022-09-12T13:20:27.812Z,20.28
2022-09-12T13:23:00.499Z,20.36
2022-09-12T13:25:35.036Z,20.24
2022-09-12T13:28:16.096Z,20.12
2022-09-12T13:30:49.330Z,20.11
2022-09-12T13:33:29.471Z,20.27
2022-09-12T13:36:33.843Z,20.15
2022-09-12T13:39:23.904Z,20.17
2022-09-12T13:42:34.287Z,20.10
2022-09-12T13:45:11.599Z,20.12
2022-09-12T13:47:46.309Z,20.14
2022-09-12T13:50:22.598Z,19.84
2022-09-12T13:52:57.743Z,19.79
2022-09-12T13:55:33.633Z,19.75
2022-09-12T13:58:07.095Z,19.70
2022-09-12T14:00:38.195Z,19.59
2022-09-12T14:03:46.759Z,19.61
2022-09-12T14:06:16.875Z,19.67
2022-09-12T14:08:48.611Z,19.57
2022-09-12T14:11:27.960Z,19.51
2022-09-12T14:14:00.197Z,19.46
2022-09-12T14:16:31.631Z,19.43
2022-09-12T14:19:02.204Z,19.46
2022-09-12T14:21:38.296Z,19.45
2022-09-12T14:24:11.531Z,19.25
2022-09-12T14:26:43.232Z,19.13
2022-09-12T14:29:18.701Z,19.11
2022-09-12T14:31:48.673Z,19.12
2022-09-12T14:34:21.101Z,18.93
2022-09-12T14:36:55.377Z,18.86
2022-09-12T14:39:32.264Z,18.79
2022-09-12T14:42:09.216Z,18.77
2022-09-12T14:44:41.431Z,18.78
2022-09-12T14:47:16.703Z,18.70
2022-09-12T14:49:46.852Z,18.75
2022-09-12T14:52:29.595Z,18.76
2022-09-12T14:55:02.766Z,18.63
2022-09-12T14:57:41.495Z,18.56
2022-09-12T15:00:24.572Z,18.56
2022-09-12T15:02:55.714Z,18.62
2022-09-12T15:05:30.359Z,18.63
2022-09-12T15:08:02.535Z,18.66
2022-09-12T15:10:33.590Z,18.67
2022-09-12T15:13:22.482Z,18.54
2022-09-12T15:15:56.748Z,18.48
2022-09-12T15:18:28.373Z,18.49
2022-09-12T15:21:02.904Z,18.50
2022-09-12T15:23:41.599Z,18.38
2022-09-12T15:26:14.842Z,18.38
2022-09-12T15:28:46.072Z,18.36
2022-09-12T15:31:26.549Z,18.25
2022-09-12T15:33:58.595Z,18.21
2022-09-12T15:36:29.219Z,18.18
2022-09-12T15:38:59.184Z,18.14
2022-09-12T15:41:34.876Z,18.05
2022-09-12T15:44:06.738Z,18.00
2022-09-12T15:46:38.133Z,17.90
2022-09-12T15:49:08.087Z,17.78
2022-09-12T15:53:10.923Z,17.66
2022-09-12T15:55:41.995Z,17.50
2022-09-12T15:58:12.300Z,17.37
2022-09-12T16:00:42.177Z,17.32
2022-09-12T16:03:24.514Z,17.16
2022-09-12T16:05:59.480Z,16.87
2022-09-12T16:08:33.403Z,16.60
2022-09-12T16:11:07.115Z,16.31
2022-09-12T16:13:37.191Z,16.16
2022-09-12T16:16:07.994Z,15.99
2022-09-12T16:18:37.938Z,15.83
2022-09-12T16:21:12.664Z,15.73
2022-09-12T16:23:47.384Z,15.64
2022-09-12T16:26:18.033Z,15.56
2022-09-12T16:28:48.675Z,15.51
2022-09-12T16:31:18.794Z,15.59
2022-09-12T16:33:48.911Z,15.55
2022-09-12T16:36:21.574Z,15.42
2022-09-12T16:38:55.472Z,15.28
2022-09-12T16:41:27.154Z,15.24
2022-09-12T16:43:57.384Z,15.26
2022-09-12T16:46:29.882Z,15.11
2022-09-12T16:49:01.797Z,14.95
2022-09-12T16:51:36.992Z,14.85
2022-09-12T16:54:08.472Z,14.92
2022-09-12T16:56:38.295Z,14.90
2022-09-12T16:59:09.947Z,14.83
2022-09-12T17:01:39.767Z,14.84
2022-09-12T17:04:10.215Z,14.91
2022-09-12T17:06:40.416Z,14.93
2022-09-12T17:09:13.461Z,14.89
2022-09-12T17:11:43.391Z,14.76
2022-09-12T17:14:13.432Z,14.69
2022-09-12T17:16:50.834Z,14.72
2022-09-12T17:19:26.753Z,14.75
2022-09-12T17:21:57.295Z,14.84
2022-09-12T17:24:29.220Z,14.81
2022-09-12T17:26:59.754Z,14.74
2022-09-12T17:29:29.561Z,14.56
2022-09-12T17:31:59.532Z,14.46
2022-09-12T17:34:29.617Z,14.49
2022-09-12T17:36:59.515Z,14.50
2022-09-12T17:39:31.182Z,14.49
2022-09-12T17:42:01.795Z,14.43
2022-09-12T17:44:31.605Z,14.42
2022-09-12T17:47:01.404Z,14.41
2022-09-12T17:49:31.507Z,14.28
2022-09-12T17:52:02.710Z,14.21
2022-09-12T17:54:34.024Z,14.16
2022-09-12T17:57:05.255Z,14.03
2022-09-12T17:59:34.991Z,13.76
2022-09-12T18:02:16.532Z,13.71
2022-09-12T18:04:48.551Z,13.66
2022-09-12T18:07:20.533Z,13.70
2022-09-12T18:09:53.779Z,13.75
2022-09-12T18:12:23.651Z,13.68
2022-09-12T18:14:53.752Z,13.68
2022-09-12T18:17:23.533Z,13.63
2022-09-12T18:19:54.254Z,13.60
2022-09-12T18:22:24.175Z,13.54
2022-09-12T18:24:55.564Z,13.57
2022-09-12T18:27:25.342Z,13.58
2022-09-12T18:30:17.245Z,13.51
2022-09-12T18:32:45.096Z,13.48
2022-09-12T18:35:15.784Z,13.47
2022-09-12T18:37:45.734Z,13.44
2022-09-12T18:40:17.148Z,13.42
2022-09-12T18:42:46.976Z,13.39
2022-09-12T18:45:17.183Z,13.37
2022-09-12T18:47:46.964Z,13.31
2022-09-12T18:53:09.468Z,13.29
2022-09-12T18:55:39.194Z,13.27
2022-09-12T18:58:09.060Z,13.21
2022-09-12T19:00:41.262Z,13.15
2022-09-12T19:03:11.016Z,13.10
2022-09-12T19:05:41.186Z,13.12
2022-09-12T19:08:12.633Z,13.06
2022-09-12T19:10:42.335Z,13.01
2022-09-12T19:13:12.112Z,12.93
2022-09-12T19:15:43.185Z,12.87
2022-09-12T19:18:13.340Z,12.85
2022-09-12T19:20:43.154Z,12.84
2022-09-12T19:23:14.359Z,12.77
2022-09-12T19:25:45.818Z,12.69
2022-09-12T19:28:15.534Z,12.61
2022-09-12T19:30:50.010Z,12.59
2022-09-12T19:33:19.979Z,12.51
2022-09-12T19:35:50.018Z,12.46
2022-09-12T19:38:21.591Z,12.42
2022-09-12T19:40:59.328Z,12.33
2022-09-12T19:43:29.795Z,12.10
2022-09-12T19:45:59.770Z,12.04
2022-09-12T19:48:29.864Z,12.04
2022-09-12T19:51:02.199Z,12.07
2022-09-12T19:53:34.350Z,12.12
2022-09-12T19:56:06.418Z,12.19
2022-09-12T19:58:40.635Z,12.25
2022-09-12T20:01:12.380Z,12.28
2022-09-12T20:03:42.975Z,12.36
2022-09-12T20:06:15.261Z,12.39
2022-09-12T20:08:46.626Z,12.46
2022-09-12T20:11:19.459Z,12.47
2022-09-12T20:13:49.654Z,12.49
2022-09-12T20:16:22.738Z,12.46
2022-09-12T20:18:57.413Z,12.38
2022-09-12T20:21:32.189Z,12.31
2022-09-12T20:24:08.785Z,12.25
2022-09-12T20:26:38.964Z,12.17
2022-09-12T20:29:09.715Z,12.16
2022-09-12T20:31:41.535Z,12.12
2022-09-12T20:34:18.354Z,12.10
2022-09-12T20:36:48.415Z,12.19
2022-09-12T20:39:23.294Z,12.28
2022-09-12T20:41:53.603Z,12.33
2022-09-12T20:44:23.837Z,12.31
2022-09-12T20:46:53.730Z,12.30
2022-09-12T20:49:24.100Z,12.23
2022-09-12T20:51:53.985Z,12.20
2022-09-12T20:54:25.891Z,12.12
2022-09-12T20:56:55.957Z,12.12
2022-09-12T20:59:25.858Z,12.01
2022-09-12T21:01:55.718Z,11.88
2022-09-12T21:04:25.852Z,11.83
2022-09-12T21:06:55.696Z,11.84
2022-09-12T21:09:27.003Z,11.82
2022-09-12T21:11:56.913Z,11.80
2022-09-12T21:14:26.812Z,11.78
2022-09-12T21:16:56.747Z,11.73
2022-09-12T21:19:26.574Z,11.59
2022-09-12T21:21:56.360Z,11.56
2022-09-12T21:24:27.803Z,11.52
2022-09-12T21:27:00.952Z,11.40
2022-09-12T21:29:33.526Z,11.36
2022-09-12T21:32:04.032Z,11.38
2022-09-12T21:34:33.896Z,11.26
2022-09-12T21:37:03.802Z,11.19
2022-09-12T21:39:35.033Z,11.17
2022-09-12T21:42:05.333Z,10.98
2022-09-12T21:44:35.164Z,10.85
2022-09-12T21:47:04.959Z,10.69
2022-09-12T21:53:09.033Z,10.63
2022-09-12T21:55:38.982Z,10.59
2022-09-12T21:58:08.836Z,10.68
2022-09-12T22:00:39.269Z,10.69
2022-09-12T22:03:10.734Z,10.71
2022-09-12T22:05:41.557Z,10.66
2022-09-12T22:08:13.357Z,10.56
2022-09-12T22:10:44.614Z,10.45
2022-09-12T22:13:14.621Z,10.30
2022-09-12T22:15:46.509Z,10.28
2022-09-12T22:18:16.635Z,10.28
2022-09-12T22:20:46.656Z,10.29
2022-09-12T22:23:34.899Z,10.16
2022-09-12T22:26:06.018Z,10.03
2022-09-12T22:28:36.235Z,10.01
2022-09-12T22:31:06.658Z,10.02
2022-09-12T22:33:36.722Z,10.03
2022-09-12T22:36:06.938Z,9.99
2022-09-12T22:38:38.920Z,10.03
2022-09-12T22:41:10.818Z,9.92
2022-09-12T22:43:41.235Z,9.71
2022-09-12T22:46:13.735Z,9.66
2022-09-12T22:48:44.428Z,9.63
2022-09-12T22:51:14.927Z,9.69
2022-09-12T22:53:46.475Z,9.74
2022-09-12T22:56:16.357Z,9.69
2022-09-12T22:58:46.797Z,9.59
2022-09-12T23:01:17.194Z,9.59
2022-09-12T23:03:47.523Z,9.52
2022-09-12T23:06:17.719Z,9.53
2022-09-12T23:08:49.195Z,9.50
2022-09-12T23:11:22.558Z,9.41
2022-09-12T23:13:53.361Z,9.35
2022-09-12T23:16:26.156Z,9.40
2022-09-12T23:18:56.056Z,9.39
2022-09-12T23:21:26.078Z,9.43
2022-09-12T23:23:57.799Z,9.44
2022-09-12T23:26:29.996Z,9.37
2022-09-12T23:29:02.279Z,9.36
2022-09-12T23:31:34.812Z,9.40
2022-09-12T23:34:07.574Z,9.27
2022-09-12T23:36:37.499Z,8.96
2022-09-12T23:39:09.125Z,8.93
2022-09-12T23:41:39.261Z,9.00
2022-09-12T23:44:09.658Z,8.94
2022-09-12T23:46:39.581Z,8.90
2022-09-12T23:49:09.914Z,9.00
2022-09-12T23:51:40.034Z,9.07
2022-09-12T23:56:58.919Z,8.75
2022-09-12T23:59:28.880Z,8.77
